Time;durP1;ratioP1;P1;durP2;ratioP2;P2;SDS_P1;SDS_P2;PMS_P1;PMS_P2;Temp;Humidity;BMP_temperature;BMP_pressure;BME280_temperature;BME280_humidity;BME280_pressure;Samples;Min_cycle;Max_cycle;Signal;HPM_P1;HPM_P2
2023/07/29 00:00:07;;;;;;;;;;;;;;;;;;;;;
2023/07/29 00:06:06;;;;;;;;;;;;;;;;;;;;;
2023/07/29 00:12:21;;;;;;;8.00;7.30;;;;;;;17.08;91.17;98216.39;226903;1275;22534;-77
2023/07/29 00:18:13;;;;;;;8.70;8.00;;;;;;;17.12;91.09;98213.68;226862;1275;22555;-77
2023/07/29 00:23:56;;;;;;;;;;;;;;;;;;;;;
2023/07/29 00:29:35;;;;;;;11.30;8.20;;;;;;;17.19;91.12;98205.54;226978;1275;22559;-78
2023/07/29 00:35:28;;;;;;;;;;;;;;;;;;;;;
2023/07/29 00:41:51;;;;;;;;;;;;;;;;;;;;;
2023/07/29 00:47:58;;;;;;;7.80;7.10;;;;;;;17.28;91.06;98181.03;226874;1275;22522;-77
2023/07/29 00:53:25;;;;;;;8.00;7.20;;;;;;;17.34;91.32;98176.16;226857;1272;22544;-77
2023/07/29 00:59:40;;;;;;;;;;;;;;;;;;;;;
2023/07/29 01:05:20;;;;;;;7.90;6.20;;;;;;;17.40;91.10;98183.44;226898;1275;22567;-78
2023/07/29 01:11:17;;;;;;;6.60;6.00;;;;;;;17.37;90.79;98189.17;226968;1275;22579;-78
2023/07/29 01:16:47;;;;;;;9.00;7.00;;;;;;;17.35;90.67;98188.34;226855;1273;22534;-78
2023/07/29 01:29:30;;;;;;;7.90;7.10;;;;;;;17.25;90.80;98186.86;226956;1275;22534;-78
2023/07/29 01:35:48;;;;;;;;;;;;;;;;;;;;;
2023/07/29 01:41:33;;;;;;;8.60;6.60;;;;;;;17.19;90.56;98189.14;227016;1275;22649;-78
2023/07/29 01:47:22;;;;;;;8.10;6.20;;;;;;;17.16;90.52;98191.54;227004;1273;22533;-77
2023/07/29 01:53:18;;;;;;;9.40;6.70;;;;;;;17.13;90.96;98200.84;227005;1272;22613;-77
2023/07/29 01:59:24;;;;;;;;;;;;;;;;;;;;;
2023/07/29 02:05:25;;;;;;;7.70;6.30;;;;;;;17.12;91.13;98206.42;226999;1275;22534;-77
2023/07/29 02:11:26;;;;;;;;;;;;;;;;;;;;;
2023/07/29 02:17:56;;;;;;;;;;;;;;;;;;;;;
2023/07/29 02:24:01;;;;;;;6.50;5.90;;;;;;;16.95;91.32;98211.55;226976;1275;21779;-78
2023/07/29 02:30:16;;;;;;;;;;;;;;;;;;;;;
2023/07/29 02:36:18;;;;;;;7.20;6.50;;;;;;;16.79;91.46;98210.27;226807;1275;22546;-77
2023/07/29 02:42:21;;;;;;;;;;;;;;;;;;;;;
2023/07/29 02:49:05;;;;;;;7.90;7.10;;;;;;;16.67;91.87;98211.89;226952;1275;22535;-78
2023/07/29 03:07:28;;;;;;;9.90;9.00;;;;;;;16.46;91.85;98224.66;226810;1275;22532;-78
2023/07/29 03:13:20;;;;;;;10.60;9.60;;;;;;;16.41;91.80;98227.52;226795;1264;22534;-78
2023/07/29 03:26:11;;;;;;;;;;;;;;;;;;;;;
2023/07/29 03:38:23;;;;;;;;;;;;;;;;;;;;;
2023/07/29 03:44:39;;;;;;;12.50;11.20;;;;;;;16.70;92.17;98226.02;227082;1275;25378;-78
2023/07/29 03:51:14;;;;;;;;;;;;;;;;;;;;;
2023/07/29 03:58:16;;;;;;;14.00;11.90;;;;;;;17.20;91.85;98232.61;226934;1275;22530;-78
2023/07/29 04:03:57;;;;;;;14.00;12.50;;;;;;;17.39;91.70;98237.27;226839;1275;22553;-77
2023/07/29 04:11:01;;;;;;;;;;;;;;;;;;;;;
2023/07/29 04:16:28;;;;;;;11.60;10.40;;;;;;;17.80;91.14;98239.63;226997;1275;22534;-76
2023/07/29 04:22:45;;;;;;;;;;;;;;;;;;;;;
2023/07/29 04:35:25;;;;;;;;;;;;;;;;;;;;;
2023/07/29 04:41:36;;;;;;;;;;;;;;;;;;;;;
2023/07/29 04:46:44;;;;;;;10.20;8.70;;;;;;;18.70;90.03;98249.87;226879;1275;22542;-77
2023/07/29 04:52:20;;;;;;;;;;;;;;;;;;;;;
2023/07/29 04:57:45;;;;;;;9.60;8.60;;;;;;;19.07;89.63;98249.17;226978;1275;22542;-77
2023/07/29 05:03:19;;;;;;;;;;;;;;;;;;;;;
2023/07/29 05:09:49;;;;;;;;;;;;;;;;;;;;;
2023/07/29 05:15:22;;;;;;;;;;;;;;;;;;;;;
2023/07/29 05:21:29;;;;;;;7.80;6.50;;;;;;;19.79;88.36;98266.74;225921;1281;23065;-77
2023/07/29 05:27:52;;;;;;;7.20;6.50;;;;;;;19.96;88.21;98278.90;225869;1280;22535;-76
2023/07/29 05:33:24;;;;;;;7.40;6.70;;;;;;;20.11;87.92;98273.55;225973;1276;24195;-76
2023/07/29 05:38:55;;;;;;;6.90;6.20;;;;;;;20.30;87.71;98268.96;226755;1275;22533;-75
2023/07/29 05:51:07;;;;;;;6.40;5.80;;;;;;;20.58;87.33;98265.47;226991;1272;22541;-77
2023/07/29 05:56:43;;;;;;;5.40;4.90;;;;;;;20.77;86.65;98265.77;226889;1254;22552;-78
2023/07/29 06:03:27;;;;;;;12.00;10.20;;;;;;;20.90;86.13;98279.17;226960;1275;25248;-77
2023/07/29 06:08:57;;;;;;;5.30;4.80;;;;;;;21.12;85.95;98285.52;226999;1275;25275;-77
2023/07/29 06:15:12;;;;;;;5.20;4.60;;;;;;;21.29;85.42;98290.23;226836;1275;22544;-79
2023/07/29 06:27:03;;;;;;;5.00;3.90;;;;;;;21.65;84.64;98292.89;226922;1275;22582;-77
2023/07/29 06:32:45;;;;;;;4.40;3.80;;;;;;;21.79;83.96;98299.92;226891;1275;24270;-78
2023/07/29 06:38:21;;;;;;;4.00;3.60;;;;;;;21.87;84.18;98301.88;226847;1273;22518;-77
2023/07/29 06:44:01;;;;;;;3.80;3.40;;;;;;;22.00;84.15;98302.84;226775;1260;22538;-77
2023/07/29 06:49:35;;;;;;;4.20;3.20;;;;;;;22.06;83.60;98305.90;226397;1270;22534;-77
2023/07/29 06:55:44;;;;;;;4.20;3.50;;;;;;;22.02;83.46;98306.87;226307;1267;22690;-76
2023/07/29 07:01:08;;;;;;;3.60;3.30;;;;;;;22.11;83.49;98306.91;226304;1257;22535;-76
2023/07/29 07:06:18;;;;;;;4.20;3.80;;;;;;;22.31;83.01;98299.29;226581;1270;22526;-76
2023/07/29 07:12:30;;;;;;;4.80;3.70;;;;;;;22.55;83.23;98302.79;226331;1269;22542;-77
2023/07/29 07:18:13;;;;;;;;;;;;;;;;;;;;;
2023/07/29 07:23:44;;;;;;;2.90;2.70;;;;;;;23.20;82.03;98298.09;226284;1269;22551;-75
2023/07/29 07:29:07;;;;;;;3.20;2.70;;;;;;;23.64;81.33;98292.88;226039;1272;22595;-76
2023/07/29 07:34:19;;;;;;;3.70;2.50;;;;;;;23.98;79.70;98295.17;226133;1269;25445;-75
2023/07/29 07:39:58;;;;;;;3.40;2.60;;;;;;;24.17;78.70;98293.39;225984;1275;24788;-75
2023/07/29 07:45:17;;;;;;;3.50;2.90;;;;;;;24.33;77.31;98289.55;226022;1275;25452;-74
2023/07/29 07:50:37;;;;;;;2.50;2.30;;;;;;;24.37;76.90;98288.96;225862;1273;22545;-75
2023/07/29 07:56:22;;;;;;;;;;;;;;;;;;;;;
2023/07/29 08:01:56;;;;;;;2.40;2.10;;;;;;;24.75;75.01;98292.34;226446;1255;24258;-76
2023/07/29 08:07:11;;;;;;;3.00;2.30;;;;;;;25.05;74.88;98289.82;226369;1270;22550;-76
2023/07/29 08:12:14;;;;;;;2.30;2.10;;;;;;;25.34;74.31;98285.89;226273;1269;22563;-75
2023/07/29 08:17:29;;;;;;;2.10;1.80;;;;;;;25.54;72.37;98283.48;226219;1275;22548;-76
2023/07/29 08:22:54;;;;;;;2.40;2.20;;;;;;;25.74;71.54;98276.78;226284;1274;22530;-75
2023/07/29 08:28:00;;;;;;;3.00;2.70;;;;;;;25.90;70.90;98275.67;226366;1269;22529;-75
2023/07/29 08:33:16;;;;;;;3.10;2.80;;;;;;;26.16;70.87;98272.50;226367;1269;22530;-76
2023/07/29 08:38:27;;;;;;;3.40;2.80;;;;;;;26.18;69.69;98266.98;226438;1272;22567;-76
2023/07/29 08:43:32;;;;;;;3.90;2.80;;;;;;;26.27;70.36;98265.71;226631;1272;22561;-76
2023/07/29 08:48:58;;;;;;;3.40;2.50;;;;;;;26.18;68.97;98264.50;226443;1270;22585;-76
2023/07/29 08:54:03;;;;;;;2.90;2.50;;;;;;;25.91;68.43;98260.36;226423;1269;22533;-76
2023/07/29 08:59:10;;;;;;;2.90;2.70;;;;;;;25.85;69.60;98257.77;226455;1253;22595;-75
2023/07/29 09:04:19;;;;;;;3.50;3.10;;;;;;;26.07;69.90;98252.73;226551;1268;22541;-75
2023/07/29 09:09:25;;;;;;;4.80;2.90;;;;;;;26.50;69.63;98247.48;226291;1262;22622;-76
2023/07/29 09:14:30;;;;;;;3.00;2.80;;;;;;;26.89;68.70;98243.06;226105;1276;24213;-76
2023/07/29 09:19:33;;;;;;;3.40;2.90;;;;;;;27.00;67.65;98246.79;226378;1275;22974;-76
2023/07/29 09:24:36;;;;;;;2.90;2.70;;;;;;;26.94;66.08;98242.41;226554;1275;24258;-77
2023/07/29 09:29:38;;;;;;;2.80;2.60;;;;;;;26.92;66.18;98238.76;226440;1259;22564;-76
2023/07/29 09:34:52;;;;;;;4.20;2.40;;;;;;;26.97;66.29;98234.10;226250;1259;22594;-76
2023/07/29 09:39:54;;;;;;;2.40;2.10;;;;;;;27.06;65.62;98235.20;226014;1269;22531;-76
2023/07/29 09:44:56;;;;;;;2.40;2.20;;;;;;;27.14;65.65;98227.44;226111;1267;22534;-77
2023/07/29 09:49:59;;;;;;;2.10;2.00;;;;;;;27.49;65.80;98217.23;226257;1256;22910;-76
2023/07/29 09:55:02;;;;;;;2.00;1.80;;;;;;;27.62;64.08;98213.19;226142;1272;22548;-76
2023/07/29 10:00:13;;;;;;;2.70;2.50;;;;;;;27.61;63.80;98207.48;226095;1259;22533;-77
2023/07/29 10:05:17;;;;;;;2.00;1.90;;;;;;;27.94;64.38;98205.36;226435;1265;22548;-77
2023/07/29 10:10:30;;;;;;;2.40;2.10;;;;;;;28.23;63.31;98198.52;226457;1256;25272;-77
2023/07/29 10:15:32;;;;;;;2.80;2.10;;;;;;;27.95;61.47;98197.12;226473;1270;22644;-79
2023/07/29 10:20:56;;;;;;;5.10;2.90;;;;;;;27.53;61.63;98196.70;226419;1272;22692;-78
2023/07/29 10:26:09;;;;;;;1.70;1.60;;;;;;;27.52;61.41;98197.86;226313;1264;23010;-78
2023/07/29 10:31:17;;;;;;;1.70;1.60;;;;;;;27.62;61.38;98198.91;226201;1263;22534;-78
2023/07/29 10:36:20;;;;;;;3.70;1.80;;;;;;;27.82;61.12;98196.70;226379;1269;22648;-78
2023/07/29 10:41:56;;;;;;;1.70;1.60;;;;;;;28.13;61.66;98196.63;226271;1270;24279;-79
2023/07/29 10:46:59;;;;;;;2.00;1.90;;;;;;;27.95;59.73;98197.56;226332;1269;173870;-78
2023/07/29 10:52:56;;;;;;;3.60;2.30;;;;;;;27.72;60.09;98194.76;226481;1260;22610;-76
2023/07/29 10:58:17;;;;;;;3.30;2.40;;;;;;;27.82;60.36;98187.48;226425;1272;22572;-77
2023/07/29 11:03:22;;;;;;;3.80;3.50;;;;;;;27.94;59.99;98186.34;225928;1257;22665;-78
2023/07/29 11:08:31;;;;;;;2.70;2.50;;;;;;;27.94;59.89;98182.48;227308;1276;22534;-77
2023/07/29 11:13:37;;;;;;;2.60;2.40;;;;;;;28.01;59.87;98179.89;226234;1273;22532;-77
2023/07/29 11:18:49;;;;;;;2.70;2.50;;;;;;;28.11;59.77;98175.84;226540;1272;25240;-78
2023/07/29 11:23:53;;;;;;;2.30;2.20;;;;;;;28.37;59.83;98164.10;226620;1269;22573;-78
2023/07/29 11:29:09;;;;;;;2.10;1.90;;;;;;;28.56;58.66;98164.16;226655;1275;22465;-79
2023/07/29 11:34:48;;;;;;;2.20;2.10;;;;;;;28.29;57.17;98163.64;226690;1276;25485;-78
2023/07/29 11:40:34;;;;;;;2.10;2.00;;;;;;;27.95;57.97;98158.02;226682;1276;22706;-77
2023/07/29 11:45:35;;;;;;;2.60;2.20;;;;;;;27.90;58.62;98154.48;226678;1276;22543;-77
2023/07/29 11:51:13;;;;;;;2.50;2.30;;;;;;;27.91;58.64;98152.44;226724;1276;22541;-77
2023/07/29 11:56:33;;;;;;;1.90;1.80;;;;;;;27.84;58.03;98157.40;226658;1276;22547;-78
2023/07/29 12:01:38;;;;;;;2.30;2.20;;;;;;;27.79;58.63;98155.45;226675;1273;22543;-78
2023/07/29 12:06:41;;;;;;;3.50;2.30;;;;;;;27.70;58.29;98154.33;226742;1273;22522;-77
2023/07/29 12:11:52;;;;;;;2.50;2.30;;;;;;;27.29;58.56;98146.48;226659;1272;22545;-77
2023/07/29 12:16:54;;;;;;;2.70;2.50;;;;;;;27.12;59.63;98138.76;226731;1273;23015;-77
2023/07/29 12:22:09;;;;;;;2.50;2.30;;;;;;;27.20;60.02;98133.48;226673;1273;22544;-77
2023/07/29 12:27:21;;;;;;;2.70;2.40;;;;;;;27.26;59.82;98126.60;226738;1269;22596;-78
2023/07/29 12:32:26;;;;;;;1.80;1.70;;;;;;;27.26;59.14;98128.61;226732;1269;22533;-79
2023/07/29 12:37:35;;;;;;;2.20;1.80;;;;;;;27.40;59.18;98121.61;226655;1269;22644;-75
2023/07/29 12:42:37;;;;;;;1.80;1.70;;;;;;;27.60;58.54;98116.55;226709;1269;22553;-78
2023/07/29 12:47:52;;;;;;;1.90;1.80;;;;;;;27.70;58.32;98106.79;226682;1273;22554;-77
2023/07/29 12:52:55;;;;;;;1.60;1.50;;;;;;;27.95;57.84;98110.44;226654;1271;22529;-77
2023/07/29 12:58:00;;;;;;;1.90;1.80;;;;;;;27.96;57.10;98110.73;226582;1272;22574;-77
2023/07/29 13:03:05;;;;;;;1.70;1.60;;;;;;;27.73;57.28;98109.15;226618;1276;22583;-77
2023/07/29 13:08:08;;;;;;;1.70;1.60;;;;;;;27.52;57.33;98105.44;226578;1272;23395;-77
2023/07/29 13:13:10;;;;;;;1.80;1.70;;;;;;;27.45;57.89;98103.68;226690;1273;22590;-77
2023/07/29 13:18:15;;;;;;;1.60;1.50;;;;;;;27.48;57.89;98099.79;226598;1276;22531;-77
2023/07/29 13:23:17;;;;;;;1.80;1.70;;;;;;;27.53;57.58;98095.19;226689;1269;22547;-78
2023/07/29 13:28:22;;;;;;;1.70;1.60;;;;;;;27.74;58.03;98092.16;226597;1275;22537;-77
2023/07/29 13:33:27;;;;;;;2.10;1.90;;;;;;;28.14;58.05;98086.40;226620;1273;22583;-77
2023/07/29 13:38:29;;;;;;;1.80;1.70;;;;;;;28.34;56.81;98085.77;226724;1269;22522;-76
2023/07/29 13:43:34;;;;;;;2.00;1.40;;;;;;;28.40;56.66;98079.05;226680;1276;22547;-77
2023/07/29 13:48:36;;;;;;;1.90;1.80;;;;;;;28.37;56.03;98067.19;226657;1273;24187;-77
2023/07/29 13:53:44;;;;;;;3.00;2.00;;;;;;;28.41;56.97;98065.59;226696;1273;22545;-76
2023/07/29 13:59:01;;;;;;;1.70;1.60;;;;;;;28.73;57.36;98060.48;226752;1276;25952;-77
2023/07/29 14:04:12;;;;;;;1.80;1.60;;;;;;;28.79;55.80;98052.11;226675;1274;22578;-77
2023/07/29 14:09:17;;;;;;;2.10;1.90;;;;;;;28.53;55.54;98053.41;226727;1276;22578;-78
2023/07/29 14:14:19;;;;;;;1.70;1.60;;;;;;;28.40;55.86;98047.13;226773;1272;22537;-78
2023/07/29 14:19:24;;;;;;;1.80;1.70;;;;;;;28.46;56.38;98043.48;226699;1273;25370;-79
2023/07/29 14:24:26;;;;;;;1.90;1.80;;;;;;;28.59;55.91;98040.39;226662;1276;22651;-77
2023/07/29 14:29:28;;;;;;;2.10;2.00;;;;;;;28.51;56.08;98037.48;226465;1276;22533;-77
2023/07/29 14:34:51;;;;;;;3.00;2.10;;;;;;;28.56;56.67;98033.42;226651;1260;22519;-76
2023/07/29 14:39:53;;;;;;;2.30;2.10;;;;;;;28.62;56.51;98032.93;226753;1272;22543;-77
2023/07/29 14:44:59;;;;;;;2.40;2.20;;;;;;;28.62;56.14;98020.02;226592;1275;22542;-77
2023/07/29 14:50:01;;;;;;;2.00;1.80;;;;;;;28.44;56.34;98016.85;226747;1273;22580;-78
2023/07/29 14:55:04;;;;;;;1.90;1.60;;;;;;;28.42;56.93;98012.19;226670;1272;22542;-77
2023/07/29 15:00:07;;;;;;;2.30;1.60;;;;;;;28.53;56.78;98013.34;226741;1272;22481;-78
2023/07/29 15:05:17;;;;;;;2.10;2.00;;;;;;;28.64;56.73;98021.81;226594;1273;22531;-78
2023/07/29 15:10:21;;;;;;;1.50;1.40;;;;;;;28.83;56.99;98027.13;226652;1276;22551;-78
2023/07/29 15:15:23;;;;;;;1.90;1.80;;;;;;;28.90;56.51;98045.16;226606;1274;22611;-78
2023/07/29 15:20:29;;;;;;;2.10;1.80;;;;;;;28.95;56.32;98047.92;226660;1273;22544;-79
2023/07/29 15:25:33;;;;;;;1.50;1.40;;;;;;;28.83;55.84;98040.98;226746;1276;22556;-77
2023/07/29 15:30:43;;;;;;;1.70;1.60;;;;;;;28.50;55.63;98043.05;226750;1273;22528;-78
2023/07/29 15:35:49;;;;;;;1.70;1.50;;;;;;;28.03;56.28;98048.33;226675;1273;22528;-77
2023/07/29 15:40:51;;;;;;;1.90;1.80;;;;;;;27.55;56.85;98043.89;226499;1275;22593;-77
2023/07/29 15:46:02;;;;;;;2.10;2.00;;;;;;;27.20;57.63;98045.92;226712;1272;22944;-78
2023/07/29 15:51:08;;;;;;;1.90;1.70;;;;;;;26.90;58.37;98036.70;226724;1276;22896;-77
2023/07/29 15:56:10;;;;;;;1.80;1.70;;;;;;;26.69;58.61;98029.95;226581;1275;22640;-77
2023/07/29 16:01:12;;;;;;;1.90;1.80;;;;;;;26.51;59.37;98013.66;226540;1276;22559;-77
2023/07/29 16:06:14;;;;;;;2.20;1.80;;;;;;;26.38;60.00;98006.63;226638;1274;22529;-76
2023/07/29 16:11:17;;;;;;;6.90;6.30;;;;;;;26.24;60.11;97998.93;226761;1272;22621;-77
2023/07/29 16:16:19;;;;;;;2.10;1.80;;;;;;;26.04;60.66;98000.39;226645;1275;24614;-78
2023/07/29 16:21:35;;;;;;;2.00;1.80;;;;;;;25.89;60.78;97993.16;226673;1276;22550;-76
2023/07/29 16:26:38;;;;;;;2.00;1.80;;;;;;;25.75;60.99;97999.67;226609;1275;22532;-77
2023/07/29 16:31:50;;;;;;;1.70;1.60;;;;;;;25.57;61.13;97998.16;226747;1274;22545;-77
2023/07/29 16:36:57;;;;;;;0.90;0.90;;;;;;;25.35;60.22;98028.71;226505;1275;22536;-77
2023/07/29 16:42:06;;;;;;;2.60;0.70;;;;;;;24.83;59.98;98039.06;226725;1272;22558;-76
2023/07/29 16:47:24;;;;;;;;;;;;;;;;;;;;;
2023/07/29 16:52:40;;;;;;;0.90;0.80;;;;;;;23.57;62.15;98024.13;226642;1276;22573;-76
2023/07/29 16:58:08;;;;;;;1.80;0.70;;;;;;;23.10;63.28;98027.25;226680;1276;22605;-76
2023/07/29 17:03:10;;;;;;;0.70;0.70;;;;;;;22.83;63.94;98032.52;226721;1272;23033;-76
2023/07/29 17:08:42;;;;;;;0.80;0.50;;;;;;;22.73;64.58;98034.34;226651;1276;22526;-77
2023/07/29 17:13:50;;;;;;;0.60;0.60;;;;;;;22.67;65.15;98024.90;226728;1272;22544;-77
2023/07/29 17:18:54;;;;;;;0.70;0.70;;;;;;;22.50;65.89;98031.77;226722;1272;22527;-77
2023/07/29 17:24:08;;;;;;;1.70;0.70;;;;;;;22.32;66.33;98038.89;226734;1253;22552;-77
2023/07/29 17:29:15;;;;;;;2.00;0.60;;;;;;;22.12;66.78;98030.96;226529;1276;22549;-76
2023/07/29 17:34:21;;;;;;;2.80;0.90;;;;;;;22.10;67.36;98024.64;226571;1272;22533;-77
2023/07/29 17:39:41;;;;;;;0.70;0.70;;;;;;;22.00;67.22;98029.17;226744;1272;22529;-76
2023/07/29 17:44:49;;;;;;;0.80;0.50;;;;;;;21.92;67.31;98029.64;226754;1272;22709;-75
2023/07/29 17:49:59;;;;;;;1.20;0.60;;;;;;;21.85;67.32;98020.05;226579;1276;22532;-78
2023/07/29 17:55:02;;;;;;;2.00;0.70;;;;;;;21.79;67.68;98029.19;226774;1272;22575;-76
2023/07/29 18:00:20;;;;;;;;;;;;;;;;;;;;;
2023/07/29 18:05:42;;;;;;;1.30;0.70;;;;;;;21.66;68.24;98032.23;226707;1269;22541;-75
2023/07/29 18:10:45;;;;;;;1.80;0.60;;;;;;;21.60;68.65;98035.91;226704;1265;22536;-76
2023/07/29 18:15:53;;;;;;;0.80;0.70;;;;;;;21.56;69.10;98041.73;226649;1275;22533;-75
2023/07/29 18:21:00;;;;;;;0.90;0.80;;;;;;;21.47;69.40;98046.73;226731;1274;25310;-77
2023/07/29 18:26:34;;;;;;;1.10;0.80;;;;;;;21.29;69.80;98051.86;226748;1276;24238;-77
2023/07/29 18:31:55;;;;;;;1.80;1.20;;;;;;;21.11;70.22;98050.34;226670;1275;22533;-75
2023/07/29 18:36:58;;;;;;;2.90;1.50;;;;;;;20.93;70.45;98050.72;226643;1275;25072;-77
2023/07/29 18:42:07;;;;;;;2.40;1.20;;;;;;;20.74;71.00;98065.46;226510;1276;25240;-76
2023/07/29 18:47:09;;;;;;;3.90;2.60;;;;;;;20.53;71.52;98081.27;226739;1276;22541;-77
2023/07/29 18:52:21;;;;;;;4.60;3.00;;;;;;;20.37;72.10;98094.95;226642;1275;22541;-78
2023/07/29 18:57:44;;;;;;;1.90;1.70;;;;;;;20.25;72.53;98101.91;226678;1276;22588;-75
2023/07/29 19:08:41;;;;;;;2.70;2.00;;;;;;;20.06;73.04;98105.41;226653;1276;22594;-76
2023/07/29 19:13:47;;;;;;;2.40;2.20;;;;;;;19.94;73.34;98111.50;226648;1275;22545;-76
2023/07/29 19:19:01;;;;;;;2.50;1.70;;;;;;;19.84;73.90;98113.36;226729;1276;22531;-76
2023/07/29 19:24:42;;;;;;;2.20;1.90;;;;;;;19.73;74.40;98107.70;226661;1276;24288;-75
2023/07/29 19:29:47;;;;;;;1.90;1.70;;;;;;;19.59;74.84;98101.64;226722;1276;22559;-76
2023/07/29 19:35:15;;;;;;;4.70;1.70;;;;;;;19.47;75.46;98093.64;226686;1276;24787;-76
2023/07/29 19:40:51;;;;;;;2.10;1.50;;;;;;;19.37;75.95;98105.11;226723;1276;22538;-76
2023/07/29 19:45:59;;;;;;;2.50;1.70;;;;;;;19.30;76.23;98108.88;226711;1272;23572;-76
2023/07/29 19:51:25;;;;;;;2.30;1.60;;;;;;;19.23;76.41;98117.64;226663;1275;22690;-77
2023/07/29 19:56:27;;;;;;;3.60;1.50;;;;;;;19.14;76.59;98112.81;226698;1275;24190;-76
2023/07/29 20:02:12;;;;;;;2.80;1.60;;;;;;;19.04;76.86;98115.55;226305;1276;24291;-77
2023/07/29 20:08:08;;;;;;;;;;;;;;;;;;;;;
2023/07/29 20:13:44;;;;;;;;;;;;;;;;;;;;;
2023/07/29 20:19:08;;;;;;;1.50;1.10;;;;;;;18.80;78.08;98106.56;226496;1276;25279;-75
2023/07/29 20:24:20;;;;;;;1.60;1.20;;;;;;;18.76;78.41;98105.67;226629;1276;22537;-77
2023/07/29 20:29:26;;;;;;;1.60;1.40;;;;;;;18.70;78.54;98102.09;226753;1276;22654;-76
2023/07/29 20:34:34;;;;;;;2.70;1.40;;;;;;;18.64;78.46;98097.94;226629;1275;22556;-76
2023/07/29 20:39:51;;;;;;;1.30;0.90;;;;;;;18.58;78.77;98095.13;226724;1276;22545;-76
2023/07/29 20:44:54;;;;;;;0.90;0.80;;;;;;;18.50;78.92;98099.45;226662;1275;22546;-76
2023/07/29 20:50:39;;;;;;;1.50;0.90;;;;;;;18.46;79.06;98103.42;226635;1276;22551;-77
2023/07/29 20:56:12;;;;;;;3.50;0.80;;;;;;;18.44;79.20;98103.40;226673;1276;22565;-76
2023/07/29 21:02:06;;;;;;;2.20;0.90;;;;;;;18.43;79.24;98100.92;226735;1276;22545;-76
2023/07/29 21:07:19;;;;;;;1.70;0.90;;;;;;;18.41;79.33;98110.23;226709;1276;22529;-75
2023/07/29 21:12:54;;;;;;;1.60;0.70;;;;;;;18.39;79.16;98104.40;226697;1276;22921;-75
2023/07/29 21:18:01;;;;;;;1.00;0.90;;;;;;;18.37;79.31;98103.80;226589;1276;22623;-75
2023/07/29 21:23:27;;;;;;;1.70;0.70;;;;;;;18.36;79.41;98102.23;226597;1276;25462;-76
2023/07/29 21:28:29;;;;;;;1.40;0.80;;;;;;;18.35;79.52;98112.21;226651;1276;22542;-76
2023/07/29 21:33:57;;;;;;;1.10;0.60;;;;;;;18.33;79.54;98121.02;226663;1275;22544;-75
2023/07/29 21:39:39;;;;;;;1.00;0.90;;;;;;;18.31;79.70;98123.56;226689;1275;22562;-76
2023/07/29 21:51:22;;;;;;;;;;;;;;;;;;;;;
2023/07/29 21:56:34;;;;;;;1.80;1.00;;;;;;;18.30;80.10;98132.27;226740;1276;22538;-76
2023/07/29 22:02:28;;;;;;;0.90;0.70;;;;;;;18.30;80.28;98128.11;226654;1260;22530;-76
2023/07/29 22:07:46;;;;;;;1.10;0.90;;;;;;;18.31;80.47;98125.66;226744;1276;22534;-75
2023/07/29 22:13:38;;;;;;;;;;;;;;;;;;;;;
2023/07/29 22:18:54;;;;;;;1.50;0.80;;;;;;;18.42;80.88;98121.26;226661;1253;22541;-76
2023/07/29 22:24:24;;;;;;;1.50;1.40;;;;;;;18.48;80.85;98123.52;226672;1276;22533;-76
2023/07/29 22:30:15;;;;;;;;;;;;;;;;;;;;;
2023/07/29 22:36:31;;;;;;;1.40;1.30;;;;;;;18.65;81.09;98128.07;226521;1276;22532;-77
2023/07/29 22:42:24;;;;;;;1.70;0.90;;;;;;;18.75;81.09;98126.65;226738;1276;22504;-77
2023/07/29 22:47:58;;;;;;;1.80;1.00;;;;;;;18.86;81.04;98133.95;222666;1276;5380348;-77
2023/07/29 22:53:39;;;;;;;;;;;;;;;;;;;;;
2023/07/29 22:59:09;;;;;;;;;;;;;;;;;;;;;
2023/07/29 23:05:20;;;;;;;1.40;1.20;;;;;;;19.03;80.78;98153.02;226742;1276;22611;-76
2023/07/29 23:17:04;;;;;;;;;;;;;;;;;;;;;
2023/07/29 23:23:01;;;;;;;2.00;1.00;;;;;;;19.08;80.64;98165.16;226765;1276;26172;-76
2023/07/29 23:28:31;;;;;;;1.90;1.10;;;;;;;19.10;80.70;98164.01;226780;1276;22651;-77
2023/07/29 23:33:59;;;;;;;;;;;;;;;;;;;;;
2023/07/29 23:39:56;;;;;;;1.80;0.80;;;;;;;19.12;80.55;98178.80;226653;1276;22600;-75
2023/07/29 23:45:29;;;;;;;;;;;;;;;;;;;;;
2023/07/29 23:50:38;;;;;;;2.60;1.40;;;;;;;19.12;80.44;98189.20;226779;1276;22548;-75
2023/07/29 23:56:10;;;;;;;1.80;1.10;;;;;;;19.11;80.48;98184.63;226751;1276;22533;-76
